logo
Search for airport 
image banner adimage banner adimage banner ad
image banner ad

LGSYMI - Symi

Located in Simi, Greece

ICAO - , IATA -

Data provided by Airmate  

General information

Coordinates: N36°37'9" E27°50'8"
Elevation is 161 feet MSL.
Magnetic variation is 5° East
View others Airports in Dodecanese

Operational data

Special qualification required
Current time UTC:
Current local time:
Weather at : LGRP - Rodos/ Diagoras ( 33 km )
METAR: LGRP 200620Z 23019KT 9999 FEW016 SCT020 18/10 Q1004 NOSIG
TAF: TAF LGRP 200500Z 2006/2106 26020KT 9999 SCT018 BKN020 BECMG 2014/2016 28018G28KT SCT018 PROB40 TEMPO 2006/2015 5000 RA FEW010 FEW018TCU BKN020 PROB40 TEMPO 2006/2009 3000 TSRA SCT010 FEW016CB BKN020
View NOTAMs / SUP AIP / TFR affecting this airport [VIEW]
Communications frequencies: [VIEW]

Runways:

Airport contact information

Address: Simi Greece

Satellite view of LGSYMI